Time;durP1;ratioP1;P1;durP2;ratioP2;P2;SDS_P1;SDS_P2;PMS_P1;PMS_P2;Temp;Humidity;BMP_temperature;BMP_pressure;BME280_temperature;BME280_humidity;BME280_pressure;Samples;Min_cycle;Max_cycle;Signal;HPM_P1;HPM_P2
2022/12/11 00:02:09;;;;;;;16.13;8.90;;;;;;;;;;4971743;28;20057;-75
2022/12/11 00:04:35;;;;;;;13.77;8.27;;;;;;;;;;4955277;28;20472;-75
2022/12/11 00:07:01;;;;;;;13.70;8.47;;;;;;;;;;4955946;28;20042;-76
2022/12/11 00:09:27;;;;;;;15.03;8.53;;;;;;;;;;4972048;28;20031;-76
2022/12/11 00:11:53;;;;;;;15.57;8.93;;;;;;;;;;4956183;28;20105;-75
2022/12/11 00:14:18;;;;;;;13.57;8.43;;;;;;;;;;4940966;28;20214;-77
2022/12/11 00:16:46;;;;;;;18.77;8.97;;;;;;;;;;4959716;28;20035;-75
2022/12/11 00:19:12;;;;;;;15.63;8.80;;;;;;;;;;4943175;28;20038;-77
2022/12/11 00:21:37;;;;;;;15.18;8.85;;;;;;;;;;4943407;28;20042;-76
2022/12/11 00:24:07;;;;;;;22.23;8.93;;;;;;;;;;4975383;28;20124;-76
2022/12/11 00:26:36;;;;;;;17.02;9.68;;;;;;;;;;4975226;28;20130;-76
2022/12/11 00:29:02;;;;;;;19.00;9.50;;;;;;;;;;4975123;28;20042;-76
2022/12/11 00:31:30;;;;;;;18.17;9.55;;;;;;;;;;4943642;28;20043;-76
2022/12/11 00:33:57;;;;;;;16.20;9.60;;;;;;;;;;4943311;28;20054;-77
2022/12/11 00:36:25;;;;;;;16.38;9.45;;;;;;;;;;4943159;28;20053;-76
2022/12/11 00:38:55;;;;;;;19.42;9.65;;;;;;;;;;4975197;28;20868;-78
2022/12/11 00:41:20;;;;;;;18.42;9.77;;;;;;;;;;4943673;28;20125;-76
2022/12/11 00:43:46;;;;;;;19.88;10.43;;;;;;;;;;4943059;28;20438;-76
2022/12/11 00:46:12;;;;;;;19.88;9.43;;;;;;;;;;4958691;28;20042;-77
2022/12/11 00:48:39;;;;;;;19.02;9.73;;;;;;;;;;4958900;28;20084;-78
2022/12/11 00:51:06;;;;;;;27.98;11.20;;;;;;;;;;4958999;28;20042;-77
2022/12/11 00:53:36;;;;;;;26.92;9.88;;;;;;;;;;4976649;28;20127;-77
2022/12/11 00:56:13;;;;;;;21.05;10.27;;;;;;;;;;4977246;28;20034;-76
2022/12/11 00:58:42;;;;;;;22.73;10.80;;;;;;;;;;4978685;28;20039;-79
2022/12/11 01:01:10;;;;;;;28.60;10.82;;;;;;;;;;4963082;28;20127;-78
2022/12/11 01:03:38;;;;;;;24.98;10.93;;;;;;;;;;4963866;28;20111;-77
2022/12/11 01:06:05;;;;;;;26.23;10.63;;;;;;;;;;4946592;28;20064;-78
2022/12/11 01:08:30;;;;;;;30.53;10.23;;;;;;;;;;4946800;28;20142;-78
2022/12/11 01:11:01;;;;;;;25.17;10.83;;;;;;;;;;4979604;28;20039;-78
2022/12/11 01:13:29;;;;;;;28.25;11.07;;;;;;;;;;4979488;28;20081;-77
2022/12/11 01:15:55;;;;;;;30.33;10.77;;;;;;;;;;4978552;28;20043;-78
2022/12/11 01:18:24;;;;;;;24.13;10.20;;;;;;;;;;4962671;28;20058;-78
2022/12/11 01:20:53;;;;;;;29.00;11.03;;;;;;;;;;4961916;28;20046;-77
2022/12/11 01:23:20;;;;;;;34.27;10.20;;;;;;;;;;4960391;28;20047;-78
2022/12/11 01:25:48;;;;;;;25.83;11.00;;;;;;;;;;4973625;28;20053;-77
2022/12/11 01:28:14;;;;;;;34.13;11.67;;;;;;;;;;4975293;28;20118;-78
2022/12/11 01:30:41;;;;;;;32.03;11.02;;;;;;;;;;4974135;28;20389;-77
2022/12/11 01:33:07;;;;;;;34.85;10.95;;;;;;;;;;4974668;28;20489;-78
2022/12/11 01:35:35;;;;;;;43.63;11.90;;;;;;;;;;4958319;28;20350;-78
2022/12/11 01:38:01;;;;;;;45.40;12.25;;;;;;;;;;4957872;28;20058;-77
2022/12/11 01:40:28;;;;;;;45.55;12.73;;;;;;;;;;4973972;28;20146;-77
2022/12/11 01:42:54;;;;;;;37.53;11.75;;;;;;;;;;4974062;28;20050;-77
2022/12/11 01:45:25;;;;;;;45.65;13.43;;;;;;;;;;4958193;28;20043;-78
2022/12/11 01:47:53;;;;;;;56.72;11.80;;;;;;;;;;4934020;29;20037;-76
2022/12/11 01:50:19;;;;;;;41.95;13.15;;;;;;;;;;4938715;29;20130;-77
2022/12/11 01:52:46;;;;;;;91.78;14.38;;;;;;;;;;4938632;29;20043;-78
2022/12/11 01:55:12;;;;;;;41.30;12.53;;;;;;;;;;4922660;29;20430;-77
2022/12/11 01:57:40;;;;;;;47.47;14.50;;;;;;;;;;4938746;29;20057;-76
2022/12/11 02:00:06;;;;;;;54.00;13.03;;;;;;;;;;4922712;29;20154;-76
2022/12/11 02:02:38;;;;;;;58.47;13.77;;;;;;;;;;4954200;29;20130;-76
2022/12/11 02:05:05;;;;;;;52.83;14.07;;;;;;;;;;4922611;29;20126;-76
2022/12/11 02:07:36;;;;;;;56.97;13.20;;;;;;;;;;4953942;29;20053;-79
2022/12/11 02:10:04;;;;;;;64.90;13.57;;;;;;;;;;4955229;29;20042;-77
2022/12/11 02:12:49;;;;;;;79.30;13.38;;;;;;;;;;4922521;29;20113;-77
2022/12/11 02:15:27;;;;;;;88.60;13.50;;;;;;;;;;4938268;29;20153;-78
2022/12/11 02:18:09;;;;;;;77.07;13.57;;;;;;;;;;4922326;29;20441;-77
2022/12/11 02:20:37;;;;;;;61.33;13.57;;;;;;;;;;4938214;29;20500;-77
2022/12/11 02:23:12;;;;;;;51.37;12.73;;;;;;;;;;4937914;29;20047;-77
2022/12/11 02:25:42;;;;;;;48.77;12.07;;;;;;;;;;4953965;29;20142;-77
2022/12/11 02:28:24;;;;;;;67.03;12.50;;;;;;;;;;4921674;29;20061;-77
2022/12/11 02:30:53;;;;;;;64.77;13.03;;;;;;;;;;4922095;29;20043;-77
2022/12/11 02:33:24;;;;;;;56.90;13.32;;;;;;;;;;4953844;29;20086;-77
2022/12/11 02:35:51;;;;;;;52.00;12.20;;;;;;;;;;4953772;29;20047;-77
2022/12/11 02:38:22;;;;;;;119.95;14.95;;;;;;;;;;4937337;29;20059;-77
2022/12/11 02:40:49;;;;;;;59.33;12.80;;;;;;;;;;4953804;29;20039;-76
2022/12/11 02:43:16;;;;;;;71.55;12.63;;;;;;;;;;4921849;29;20153;-77
2022/12/11 02:45:45;;;;;;;31.17;12.98;;;;;;;;;;4954290;29;20039;-77
2022/12/11 02:48:11;;;;;;;35.72;12.27;;;;;;;;;;4954392;29;20466;-78
2022/12/11 02:50:41;;;;;;;58.88;13.40;;;;;;;;;;4937780;29;20047;-77
2022/12/11 02:53:09;;;;;;;64.43;13.20;;;;;;;;;;4954197;29;20493;-76
2022/12/11 02:55:36;;;;;;;175.23;16.23;;;;;;;;;;4921399;29;20035;-77
2022/12/11 02:58:05;;;;;;;91.00;14.67;;;;;;;;;;4921569;29;20035;-77
2022/12/11 03:00:31;;;;;;;61.05;12.55;;;;;;;;;;4953517;29;20473;-77
2022/12/11 03:02:59;;;;;;;77.65;13.48;;;;;;;;;;4937401;29;20533;-77
2022/12/11 03:05:26;;;;;;;68.33;12.63;;;;;;;;;;4953640;29;20039;-77
2022/12/11 03:07:53;;;;;;;90.40;13.98;;;;;;;;;;4937678;29;20075;-77
2022/12/11 03:10:19;;;;;;;67.40;13.30;;;;;;;;;;4953998;28;20113;-77
2022/12/11 03:12:49;;;;;;;63.67;13.18;;;;;;;;;;4921305;29;20122;-77
2022/12/11 03:15:17;;;;;;;79.30;13.53;;;;;;;;;;4937245;29;20382;-77
2022/12/11 03:17:46;;;;;;;99.75;14.65;;;;;;;;;;4936985;29;20482;-78
2022/12/11 03:20:33;;;;;;;86.75;12.82;;;;;;;;;;4937084;29;20042;-79
2022/12/11 03:23:09;;;;;;;53.00;12.35;;;;;;;;;;4930860;29;20093;-78
2022/12/11 03:25:50;;;;;;;122.03;15.07;;;;;;;;;;4921937;29;20035;-79
2022/12/11 03:28:21;;;;;;;141.30;16.27;;;;;;;;;;4937065;29;20039;-79
2022/12/11 03:30:48;;;;;;;183.50;15.53;;;;;;;;;;4920676;29;20474;-78
2022/12/11 03:33:34;;;;;;;109.90;14.50;;;;;;;;;;4921186;29;20053;-79
2022/12/11 03:36:02;;;;;;;106.65;15.45;;;;;;;;;;4920564;29;20171;-77
2022/12/11 03:38:47;;;;;;;148.33;19.10;;;;;;;;;;4921078;29;20066;-78
2022/12/11 03:41:15;;;;;;;91.87;14.00;;;;;;;;;;4952880;29;20368;-78
2022/12/11 03:43:43;;;;;;;112.43;14.77;;;;;;;;;;4921317;29;20134;-78
2022/12/11 03:46:10;;;;;;;82.90;14.63;;;;;;;;;;4953071;29;20486;-77
2022/12/11 03:48:37;;;;;;;75.15;15.57;;;;;;;;;;4921156;28;20098;-78
2022/12/11 03:51:07;;;;;;;120.63;14.70;;;;;;;;;;4940969;29;20093;-78
2022/12/11 03:53:37;;;;;;;63.87;13.47;;;;;;;;;;4924739;29;20054;-78
2022/12/11 03:56:04;;;;;;;285.53;18.57;;;;;;;;;;4956392;29;20031;-76
2022/12/11 03:58:30;;;;;;;294.13;21.80;;;;;;;;;;4925021;29;20073;-77
2022/12/11 04:00:57;;;;;;;68.90;14.23;;;;;;;;;;4941223;29;20046;-78
2022/12/11 04:03:23;;;;;;;493.47;27.57;;;;;;;;;;4940748;29;20039;-79
2022/12/11 04:05:53;;;;;;;134.82;16.67;;;;;;;;;;4939850;29;20111;-78
2022/12/11 04:08:19;;;;;;;82.43;15.33;;;;;;;;;;4940432;29;20031;-78
2022/12/11 04:10:46;;;;;;;61.83;15.77;;;;;;;;;;4957308;29;20043;-79
2022/12/11 04:13:14;;;;;;;69.30;16.57;;;;;;;;;;4957177;29;20130;-79
2022/12/11 04:15:42;;;;;;;78.50;16.23;;;;;;;;;;4940576;29;20053;-77
2022/12/11 04:26:26;;;;;;;54.17;14.97;;;;;;;;;;4955250;29;20047;-79
2022/12/11 04:28:52;;;;;;;72.90;14.80;;;;;;;;;;4924368;29;20375;-79
2022/12/11 04:31:21;;;;;;;107.90;15.60;;;;;;;;;;4940141;29;20045;-80
2022/12/11 04:33:47;;;;;;;61.93;16.47;;;;;;;;;;4939635;29;20082;-78
2022/12/11 04:36:14;;;;;;;87.47;16.97;;;;;;;;;;4924286;29;20039;-80
2022/12/11 04:38:40;;;;;;;70.93;14.88;;;;;;;;;;4923997;29;20493;-80
2022/12/11 04:41:10;;;;;;;208.30;18.87;;;;;;;;;;4924293;29;20050;-81
2022/12/11 04:43:38;;;;;;;61.95;15.65;;;;;;;;;;4939733;29;20086;-80
2022/12/11 04:46:10;;;;;;;217.67;18.40;;;;;;;;;;4955669;29;20062;-80
2022/12/11 04:48:38;;;;;;;49.13;13.73;;;;;;;;;;4956947;29;20090;-80
2022/12/11 04:51:11;;;;;;;54.27;14.77;;;;;;;;;;4941847;29;20054;-83
2022/12/11 04:53:44;;;;;;;109.30;14.40;;;;;;;;;;4957390;29;20095;-79
2022/12/11 04:56:14;;;;;;;47.57;13.87;;;;;;;;;;4958553;29;20066;-81
2022/12/11 04:58:42;;;;;;;63.00;13.83;;;;;;;;;;4956195;29;20039;-80
2022/12/11 05:01:13;;;;;;;75.50;14.90;;;;;;;;;;4954412;28;20118;-80
2022/12/11 05:03:39;;;;;;;58.30;16.00;;;;;;;;;;4923501;29;20134;-79
2022/12/11 05:06:05;;;;;;;57.67;13.30;;;;;;;;;;4923753;29;20142;-80
2022/12/11 05:08:33;;;;;;;55.90;16.57;;;;;;;;;;4923853;29;20043;-79
2022/12/11 05:11:00;;;;;;;56.70;13.43;;;;;;;;;;4923455;29;20043;-79
2022/12/11 05:13:28;;;;;;;67.40;14.13;;;;;;;;;;4923533;29;20062;-80
2022/12/11 05:15:57;;;;;;;44.50;13.80;;;;;;;;;;4940125;29;20031;-79
2022/12/11 05:18:25;;;;;;;41.50;14.85;;;;;;;;;;4956379;29;20051;-81
2022/12/11 05:21:01;;;;;;;69.25;15.10;;;;;;;;;;4956430;29;20070;-80
2022/12/11 05:23:33;;;;;;;33.28;13.73;;;;;;;;;;4956877;29;20039;-80
2022/12/11 05:26:02;;;;;;;50.50;14.33;;;;;;;;;;4939839;29;20062;-80
2022/12/11 05:28:29;;;;;;;38.23;14.10;;;;;;;;;;4924149;29;20081;-80
2022/12/11 05:30:57;;;;;;;70.40;13.90;;;;;;;;;;4939317;29;20039;-80
2022/12/11 05:33:25;;;;;;;40.47;13.63;;;;;;;;;;4923375;29;20047;-80
2022/12/11 05:35:55;;;;;;;67.10;14.67;;;;;;;;;;4939380;29;20039;-81
2022/12/11 05:38:21;;;;;;;104.30;14.97;;;;;;;;;;4938646;29;20070;-76
2022/12/11 05:40:55;;;;;;;57.90;13.33;;;;;;;;;;4923071;29;20035;-75
2022/12/11 05:43:21;;;;;;;83.83;14.40;;;;;;;;;;4938790;29;20070;-77
2022/12/11 05:45:48;;;;;;;60.67;13.40;;;;;;;;;;4938817;29;20035;-78
2022/12/11 05:48:14;;;;;;;55.23;13.10;;;;;;;;;;4922923;29;20042;-78
2022/12/11 05:50:39;;;;;;;73.53;13.87;;;;;;;;;;4938887;29;20027;-78
2022/12/11 05:53:06;;;;;;;49.50;12.23;;;;;;;;;;4939019;29;20047;-77
2022/12/11 05:55:35;;;;;;;42.43;13.97;;;;;;;;;;4922481;29;20039;-75
2022/12/11 05:58:01;;;;;;;55.97;16.43;;;;;;;;;;4955516;28;20054;-79
2022/12/11 06:00:27;;;;;;;93.47;13.00;;;;;;;;;;4922966;29;20061;-78
2022/12/11 06:02:53;;;;;;;41.37;12.07;;;;;;;;;;4938412;29;20373;-80
2022/12/11 06:05:24;;;;;;;33.47;11.30;;;;;;;;;;4922634;29;20433;-75
2022/12/11 06:07:53;;;;;;;46.23;11.90;;;;;;;;;;4954058;29;20517;-75
2022/12/11 06:10:20;;;;;;;37.00;12.00;;;;;;;;;;4922758;29;20126;-72
2022/12/11 06:12:46;;;;;;;144.07;15.00;;;;;;;;;;4921863;29;20129;-71
2022/12/11 06:15:11;;;;;;;34.33;12.20;;;;;;;;;;4922206;29;20046;-71
2022/12/11 06:17:37;;;;;;;42.07;12.80;;;;;;;;;;4922510;29;20038;-71
2022/12/11 06:20:02;;;;;;;39.87;13.30;;;;;;;;;;4938339;29;20512;-71
2022/12/11 06:22:29;;;;;;;36.73;13.40;;;;;;;;;;4921848;29;20047;-72
2022/12/11 06:24:55;;;;;;;43.27;11.30;;;;;;;;;;4921927;29;20045;-74
2022/12/11 06:27:20;;;;;;;33.93;10.67;;;;;;;;;;4922042;29;20589;-76
2022/12/11 06:29:46;;;;;;;34.20;10.57;;;;;;;;;;4954669;28;20488;-71
2022/12/11 06:32:12;;;;;;;44.17;12.40;;;;;;;;;;4921702;29;20098;-73
2022/12/11 06:34:38;;;;;;;35.03;11.70;;;;;;;;;;4922098;29;20059;-75
2022/12/11 06:37:04;;;;;;;29.60;11.50;;;;;;;;;;4937840;29;20098;-73
2022/12/11 06:39:29;;;;;;;33.77;11.37;;;;;;;;;;4921734;29;21141;-70
2022/12/11 06:41:55;;;;;;;32.57;10.43;;;;;;;;;;4921840;29;20143;-73
2022/12/11 06:44:21;;;;;;;28.57;10.13;;;;;;;;;;4921028;29;20445;-75
2022/12/11 06:46:50;;;;;;;30.53;10.83;;;;;;;;;;4936301;29;20031;-75
2022/12/11 06:49:21;;;;;;;21.70;9.37;;;;;;;;;;4935821;29;20477;-74
2022/12/11 06:51:49;;;;;;;25.60;9.30;;;;;;;;;;4936058;29;20082;-74
2022/12/11 06:54:15;;;;;;;28.30;9.90;;;;;;;;;;4929408;28;20051;-74
2022/12/11 06:56:41;;;;;;;28.17;9.73;;;;;;;;;;4938778;28;20038;-74
2022/12/11 06:59:10;;;;;;;25.23;10.10;;;;;;;;;;4902680;29;20050;-74
2022/12/11 07:01:37;;;;;;;30.63;10.67;;;;;;;;;;4918725;29;20035;-74
2022/12/11 07:04:09;;;;;;;29.67;10.20;;;;;;;;;;4919234;29;20047;-74
2022/12/11 07:06:36;;;;;;;27.37;9.83;;;;;;;;;;4933865;29;20038;-75
2022/12/11 07:09:05;;;;;;;27.47;10.70;;;;;;;;;;4902560;29;20414;-74
2022/12/11 07:11:31;;;;;;;33.10;10.50;;;;;;;;;;4902495;29;20040;-77
2022/12/11 07:13:58;;;;;;;24.57;10.37;;;;;;;;;;4918027;29;20372;-74
2022/12/11 07:16:24;;;;;;;29.23;11.67;;;;;;;;;;4933854;29;20123;-73
2022/12/11 07:18:50;;;;;;;22.07;10.90;;;;;;;;;;4913414;28;20177;-73
2022/12/11 07:21:16;;;;;;;30.23;12.17;;;;;;;;;;4938696;28;20504;-74
2022/12/11 07:23:42;;;;;;;29.87;13.60;;;;;;;;;;4938567;28;20023;-73
2022/12/11 07:26:09;;;;;;;32.47;13.33;;;;;;;;;;4939206;28;20043;-74
2022/12/11 07:28:35;;;;;;;31.40;13.37;;;;;;;;;;4933812;28;20031;-73
2022/12/11 07:31:07;;;;;;;32.93;13.37;;;;;;;;;;4938720;28;20039;-73
2022/12/11 07:33:33;;;;;;;31.83;14.50;;;;;;;;;;4971672;28;20129;-74
2022/12/11 07:36:04;;;;;;;35.73;14.90;;;;;;;;;;4938837;28;20192;-73
2022/12/11 07:38:29;;;;;;;;;;;;;;;;;;4935174;28;20057;-72
2022/12/11 07:40:55;;;;;;;42.73;15.20;;;;;;;;;;4938785;28;19914;-73
2022/12/11 07:43:20;;;;;;;39.20;14.87;;;;;;;;;;4938670;28;20035;-75
2022/12/11 07:45:46;;;;;;;34.63;15.03;;;;;;;;;;4938737;28;20066;-73
2022/12/11 07:48:12;;;;;;;32.97;15.07;;;;;;;;;;4938884;28;20425;-74
2022/12/11 07:50:39;;;;;;;29.00;13.87;;;;;;;;;;4939284;28;20034;-76
2022/12/11 07:53:04;;;;;;;32.53;13.07;;;;;;;;;;4938693;28;20047;-76
2022/12/11 07:55:30;;;;;;;25.83;13.27;;;;;;;;;;4938941;28;20026;-76
2022/12/11 07:57:56;;;;;;;31.17;13.80;;;;;;;;;;4938505;28;20354;-74
2022/12/11 08:00:22;;;;;;;29.67;13.67;;;;;;;;;;4954751;28;20078;-75
2022/12/11 08:02:48;;;;;;;28.00;12.80;;;;;;;;;;4938696;28;20058;-73
2022/12/11 08:05:13;;;;;;;25.43;12.67;;;;;;;;;;4938679;28;20079;-73
2022/12/11 08:07:39;;;;;;;31.07;13.17;;;;;;;;;;4938765;28;20035;-73
2022/12/11 08:10:05;;;;;;;30.97;14.80;;;;;;;;;;4938221;28;20043;-73
2022/12/11 08:12:30;;;;;;;28.37;13.47;;;;;;;;;;4938283;28;20492;-74
2022/12/11 08:14:56;;;;;;;28.53;13.37;;;;;;;;;;4938374;28;20042;-75
2022/12/11 08:17:22;;;;;;;27.60;13.77;;;;;;;;;;4938317;28;20484;-77
2022/12/11 08:19:49;;;;;;;30.73;14.50;;;;;;;;;;4970689;28;20122;-72
2022/12/11 08:22:14;;;;;;;27.63;12.97;;;;;;;;;;4933236;28;20134;-74
2022/12/11 08:24:40;;;;;;;35.87;14.23;;;;;;;;;;4938540;28;20029;-74
2022/12/11 08:27:06;;;;;;;27.57;14.10;;;;;;;;;;4937995;28;20374;-75
2022/12/11 08:29:32;;;;;;;33.00;14.80;;;;;;;;;;4938194;28;20038;-73
2022/12/11 08:31:57;;;;;;;31.87;14.47;;;;;;;;;;4937763;28;20053;-73
2022/12/11 08:34:23;;;;;;;35.77;14.80;;;;;;;;;;4953591;28;20070;-74
2022/12/11 08:36:49;;;;;;;39.37;15.30;;;;;;;;;;4939853;28;20536;-73
2022/12/11 08:39:15;;;;;;;32.53;15.43;;;;;;;;;;4937364;28;20043;-79
2022/12/11 08:41:41;;;;;;;32.90;14.97;;;;;;;;;;4940884;28;20046;-71
2022/12/11 08:44:10;;;;;;;32.13;15.73;;;;;;;;;;4972601;28;20432;-72
2022/12/11 08:46:39;;;;;;;31.67;14.50;;;;;;;;;;4968217;28;20023;-74
2022/12/11 08:49:07;;;;;;;33.33;15.33;;;;;;;;;;4941258;28;20050;-74
2022/12/11 08:51:33;;;;;;;32.47;14.83;;;;;;;;;;4958448;28;20050;-72
2022/12/11 08:54:15;;;;;;;33.93;15.37;;;;;;;;;;4958878;28;20405;-70
2022/12/11 08:56:41;;;;;;;33.63;15.10;;;;;;;;;;4942825;28;20057;-70
2022/12/11 08:59:07;;;;;;;37.33;16.30;;;;;;;;;;4942831;28;20049;-74
2022/12/11 09:01:42;;;;;;;33.17;16.17;;;;;;;;;;4942537;28;20041;-72
2022/12/11 09:04:08;;;;;;;30.83;14.57;;;;;;;;;;4925856;29;20050;-72
2022/12/11 09:06:34;;;;;;;32.73;14.10;;;;;;;;;;4922331;29;20035;-72
2022/12/11 09:09:04;;;;;;;31.60;14.80;;;;;;;;;;4922566;29;20473;-72
2022/12/11 09:11:32;;;;;;;28.00;15.20;;;;;;;;;;4938506;29;20035;-73
2022/12/11 09:13:58;;;;;;;32.13;15.57;;;;;;;;;;4954820;29;20047;-73
2022/12/11 09:16:26;;;;;;;32.90;14.63;;;;;;;;;;4922207;29;20493;-74
2022/12/11 09:18:56;;;;;;;30.23;15.18;;;;;;;;;;4939470;28;20070;-74
2022/12/11 09:21:24;;;;;;;28.80;15.53;;;;;;;;;;4940553;28;20039;-73
2022/12/11 09:23:54;;;;;;;28.57;15.40;;;;;;;;;;4972692;28;20049;-72
2022/12/11 09:26:20;;;;;;;31.60;15.13;;;;;;;;;;4968290;28;20027;-73
2022/12/11 09:28:46;;;;;;;31.37;15.80;;;;;;;;;;4940763;28;20480;-73
2022/12/11 09:31:22;;;;;;;36.23;16.13;;;;;;;;;;4942170;28;20044;-71
2022/12/11 09:33:48;;;;;;;32.67;16.00;;;;;;;;;;4942001;28;20047;-72
2022/12/11 09:36:14;;;;;;;32.23;15.70;;;;;;;;;;4942058;28;20062;-76
2022/12/11 09:38:42;;;;;;;26.70;13.87;;;;;;;;;;4942400;28;20702;-72
2022/12/11 09:41:20;;;;;;;31.57;14.50;;;;;;;;;;4958233;28;20050;-75
2022/12/11 09:43:53;;;;;;;27.87;14.87;;;;;;;;;;4957812;28;20038;-76
2022/12/11 09:46:19;;;;;;;26.83;14.23;;;;;;;;;;4957194;28;20097;-75
2022/12/11 09:48:56;;;;;;;27.73;15.47;;;;;;;;;;4976520;28;20082;-70
2022/12/11 09:51:37;;;;;;;29.17;14.97;;;;;;;;;;4945651;28;20027;-73
2022/12/11 09:54:03;;;;;;;29.27;14.93;;;;;;;;;;4955829;28;20058;-74
2022/12/11 09:56:36;;;;;;;30.47;14.77;;;;;;;;;;4935319;28;20038;-73
2022/12/11 09:59:29;;;;;;;28.53;15.57;;;;;;;;;;4969375;28;20614;-73
2022/12/11 10:01:55;;;;;;;34.23;16.93;;;;;;;;;;4935632;28;20033;-75
2022/12/11 10:04:35;;;;;;;30.20;15.80;;;;;;;;;;4971508;28;20081;-74
2022/12/11 10:07:04;;;;;;;33.50;17.47;;;;;;;;;;4938131;28;20035;-72
2022/12/11 10:09:37;;;;;;;31.03;15.47;;;;;;;;;;4951468;28;20041;-73
2022/12/11 10:12:21;;;;;;;28.50;14.53;;;;;;;;;;4973078;28;20113;-71
2022/12/11 10:14:56;;;;;;;27.87;15.07;;;;;;;;;;4939139;28;20049;-71
2022/12/11 10:17:33;;;;;;;31.40;16.93;;;;;;;;;;4956223;28;20039;-73
2022/12/11 10:20:13;;;;;;;30.27;16.93;;;;;;;;;;4941224;28;20102;-68
2022/12/11 10:22:38;;;;;;;32.07;16.53;;;;;;;;;;4941166;28;20038;-75
2022/12/11 10:25:07;;;;;;;33.10;16.97;;;;;;;;;;4941201;28;20445;-75
2022/12/11 10:27:34;;;;;;;34.00;16.60;;;;;;;;;;4955623;28;20039;-73
2022/12/11 10:30:07;;;;;;;35.43;16.80;;;;;;;;;;4955516;28;20376;-74
2022/12/11 10:32:56;;;;;;;31.30;15.70;;;;;;;;;;4939789;28;20109;-73
2022/12/11 10:35:24;;;;;;;36.40;16.43;;;;;;;;;;4932362;28;20208;-74
2022/12/11 10:37:58;;;;;;;34.13;17.33;;;;;;;;;;4971259;28;20042;-73
2022/12/11 10:40:24;;;;;;;33.53;16.87;;;;;;;;;;4966243;28;20042;-76
2022/12/11 10:42:51;;;;;;;35.63;18.07;;;;;;;;;;4939715;28;20045;-72
2022/12/11 10:45:18;;;;;;;31.70;17.80;;;;;;;;;;4939261;28;20031;-75
2022/12/11 10:47:44;;;;;;;37.50;17.97;;;;;;;;;;4955741;28;20485;-73
2022/12/11 10:50:24;;;;;;;38.50;20.07;;;;;;;;;;4939742;28;20101;-74
2022/12/11 10:52:53;;;;;;;38.85;20.25;;;;;;;;;;4935532;28;20033;-72
2022/12/11 10:55:27;;;;;;;35.03;18.30;;;;;;;;;;4938991;28;20042;-75
2022/12/11 10:58:01;;;;;;;37.93;17.57;;;;;;;;;;4939252;28;20039;-75
2022/12/11 11:00:32;;;;;;;34.70;18.47;;;;;;;;;;4950670;28;20081;-73
2022/12/11 11:03:00;;;;;;;37.83;18.63;;;;;;;;;;4955392;28;20042;-74
2022/12/11 11:05:30;;;;;;;34.60;18.40;;;;;;;;;;4955896;28;20129;-73
2022/12/11 11:08:03;;;;;;;41.67;17.57;;;;;;;;;;4956452;28;20048;-73
2022/12/11 11:10:32;;;;;;;29.77;16.50;;;;;;;;;;4956315;28;20133;-75
2022/12/11 11:13:01;;;;;;;33.03;16.77;;;;;;;;;;4956382;28;20109;-75
2022/12/11 11:15:31;;;;;;;32.30;16.97;;;;;;;;;;4972543;28;20134;-75
2022/12/11 11:18:09;;;;;;;35.72;17.05;;;;;;;;;;4956341;28;20124;-76
2022/12/11 11:20:47;;;;;;;31.53;16.60;;;;;;;;;;4973325;28;20093;-76
2022/12/11 11:23:15;;;;;;;34.23;17.13;;;;;;;;;;4954699;28;20140;-76
2022/12/11 11:25:49;;;;;;;28.83;16.42;;;;;;;;;;4971227;28;20030;-76
2022/12/11 11:28:27;;;;;;;35.23;17.00;;;;;;;;;;4951070;28;20030;-74
2022/12/11 11:31:13;;;;;;;33.33;16.83;;;;;;;;;;4950838;28;20043;-76
2022/12/11 11:33:59;;;;;;;31.80;17.17;;;;;;;;;;4965776;28;20051;-76
2022/12/11 11:36:27;;;;;;;33.27;16.83;;;;;;;;;;4952637;28;20035;-77
2022/12/11 11:38:57;;;;;;;34.93;18.10;;;;;;;;;;4955204;28;20061;-77
2022/12/11 11:41:31;;;;;;;33.97;16.98;;;;;;;;;;4971152;28;20417;-77
2022/12/11 11:44:00;;;;;;;33.03;17.20;;;;;;;;;;4937398;28;20109;-77
2022/12/11 11:46:35;;;;;;;29.45;17.38;;;;;;;;;;4970053;28;20117;-75
2022/12/11 11:49:26;;;;;;;32.97;17.77;;;;;;;;;;4953326;28;20050;-77
2022/12/11 11:52:25;;;;;;;29.97;15.87;;;;;;;;;;4950016;28;20477;-80
2022/12/11 11:55:38;;;;;;;26.57;14.10;;;;;;;;;;4910276;28;20114;-77
2022/12/11 11:58:21;;;;;;;23.63;12.80;;;;;;;;;;4921896;28;20035;-78
2022/12/11 12:01:23;;;;;;;24.67;13.40;;;;;;;;;;4951968;28;20486;-77
2022/12/11 12:04:35;;;;;;;26.37;13.63;;;;;;;;;;4939031;29;20082;-76
2022/12/11 12:07:10;;;;;;;25.60;12.73;;;;;;;;;;4936271;28;20047;-76
2022/12/11 12:09:54;;;;;;;20.83;12.10;;;;;;;;;;4916874;28;20459;-76
2022/12/11 12:12:38;;;;;;;23.37;12.97;;;;;;;;;;4953205;28;20046;-73
2022/12/11 12:15:25;;;;;;;26.33;12.67;;;;;;;;;;4953618;28;20062;-74
2022/12/11 12:18:34;;;;;;;19.73;11.07;;;;;;;;;;4933451;28;20051;-73
2022/12/11 12:21:33;;;;;;;20.33;10.97;;;;;;;;;;4938846;28;20474;-73
2022/12/11 12:24:11;;;;;;;21.13;11.50;;;;;;;;;;4937600;28;20302;-74
2022/12/11 12:26:43;;;;;;;19.40;9.23;;;;;;;;;;4921625;29;20039;-74
2022/12/11 12:29:30;;;;;;;17.33;10.10;;;;;;;;;;4953613;28;20027;-74
2022/12/11 12:31:56;;;;;;;16.27;8.57;;;;;;;;;;4920238;29;20035;-76
2022/12/11 12:34:40;;;;;;;13.67;8.20;;;;;;;;;;4952168;28;20585;-76
2022/12/11 12:37:25;;;;;;;14.27;8.17;;;;;;;;;;4921416;29;20046;-78
2022/12/11 12:40:00;;;;;;;14.80;8.10;;;;;;;;;;4921174;29;20071;-77
2022/12/11 12:42:45;;;;;;;12.53;7.90;;;;;;;;;;4920621;29;20031;-79
2022/12/11 12:45:14;;;;;;;13.87;8.47;;;;;;;;;;4920969;29;20035;-79
2022/12/11 12:47:40;;;;;;;14.50;7.93;;;;;;;;;;4928825;28;20034;-80
2022/12/11 12:50:11;;;;;;;15.67;8.60;;;;;;;;;;4957087;28;20627;-78
2022/12/11 12:52:40;;;;;;;13.63;8.37;;;;;;;;;;4972983;28;20081;-74
2022/12/11 12:55:16;;;;;;;17.73;8.47;;;;;;;;;;4942475;28;20055;-76
2022/12/11 12:57:46;;;;;;;16.43;8.73;;;;;;;;;;4958911;28;20068;-77
2022/12/11 13:00:13;;;;;;;13.90;8.03;;;;;;;;;;4958881;28;20041;-76
2022/12/11 13:02:49;;;;;;;14.73;7.80;;;;;;;;;;4957568;28;20386;-76
2022/12/11 13:05:22;;;;;;;14.33;7.83;;;;;;;;;;4941872;28;20027;-78
2022/12/11 13:07:49;;;;;;;13.30;8.33;;;;;;;;;;4941274;28;20030;-72
2022/12/11 13:10:29;;;;;;;11.63;7.43;;;;;;;;;;4936826;29;20465;-75
2022/12/11 13:12:56;;;;;;;12.18;7.38;;;;;;;;;;4922999;28;20046;-79
2022/12/11 13:15:33;;;;;;;11.43;7.23;;;;;;;;;;4940489;28;20034;-75
2022/12/11 13:18:00;;;;;;;13.53;7.63;;;;;;;;;;4951966;28;20363;-75
2022/12/11 13:20:29;;;;;;;12.67;7.50;;;;;;;;;;4942004;28;20074;-77
2022/12/11 13:23:08;;;;;;;11.57;7.53;;;;;;;;;;4973383;28;20470;-79
2022/12/11 13:25:54;;;;;;;12.60;7.63;;;;;;;;;;4923027;29;20040;-80
2022/12/11 13:28:23;;;;;;;13.70;7.47;;;;;;;;;;4935553;29;20043;-79
2022/12/11 13:31:18;;;;;;;14.47;8.03;;;;;;;;;;4919415;29;20063;-77
2022/12/11 13:33:50;;;;;;;15.60;8.40;;;;;;;;;;4935494;29;20052;-77
2022/12/11 13:36:18;;;;;;;14.00;7.93;;;;;;;;;;4904603;29;20050;-78
2022/12/11 13:38:47;;;;;;;16.27;9.17;;;;;;;;;;4920453;29;20055;-80
2022/12/11 13:41:12;;;;;;;15.10;8.33;;;;;;;;;;4922338;29;20497;-77
2022/12/11 13:43:41;;;;;;;14.33;8.23;;;;;;;;;;4935316;29;20179;-81
2022/12/11 13:46:09;;;;;;;11.10;7.53;;;;;;;;;;4920149;29;20032;-75
2022/12/11 13:48:40;;;;;;;13.67;7.57;;;;;;;;;;4933543;29;20042;-72
2022/12/11 13:51:13;;;;;;;13.10;7.63;;;;;;;;;;4903633;29;20091;-75
2022/12/11 13:53:40;;;;;;;12.83;8.40;;;;;;;;;;4918433;29;20178;-74
2022/12/11 13:56:06;;;;;;;15.43;8.37;;;;;;;;;;4919209;29;20052;-75
2022/12/11 13:58:38;;;;;;;13.67;8.13;;;;;;;;;;4903811;29;20446;-74
2022/12/11 14:01:19;;;;;;;14.50;7.03;;;;;;;;;;4918870;29;20058;-74
2022/12/11 14:04:04;;;;;;;15.57;8.17;;;;;;;;;;4934111;29;20044;-74
2022/12/11 14:06:32;;;;;;;12.67;8.53;;;;;;;;;;4932688;29;20043;-76
2022/12/11 14:09:00;;;;;;;13.87;8.43;;;;;;;;;;4917382;29;20031;-75
2022/12/11 14:11:30;;;;;;;14.97;8.70;;;;;;;;;;4932180;29;20371;-75
2022/12/11 14:14:04;;;;;;;14.67;8.47;;;;;;;;;;4916615;29;20103;-76
2022/12/11 14:16:45;;;;;;;15.63;9.27;;;;;;;;;;4935447;29;20118;-75
2022/12/11 14:19:17;;;;;;;14.23;9.20;;;;;;;;;;4935013;29;20086;-75
2022/12/11 14:21:54;;;;;;;21.13;10.73;;;;;;;;;;4934728;29;20390;-75
2022/12/11 14:24:20;;;;;;;19.60;10.43;;;;;;;;;;4918454;29;20035;-75
2022/12/11 14:26:49;;;;;;;21.53;10.40;;;;;;;;;;4905252;29;20108;-75
2022/12/11 14:29:41;;;;;;;24.60;12.87;;;;;;;;;;4936739;29;20114;-75
2022/12/11 14:32:07;;;;;;;29.37;14.27;;;;;;;;;;4919582;29;20459;-75
2022/12/11 14:34:53;;;;;;;34.33;16.83;;;;;;;;;;4928090;28;20038;-75
2022/12/11 14:37:20;;;;;;;33.13;16.20;;;;;;;;;;4952445;28;20046;-74
2022/12/11 14:39:54;;;;;;;33.07;15.73;;;;;;;;;;4955906;28;20054;-74
2022/12/11 14:42:21;;;;;;;33.40;16.30;;;;;;;;;;4950763;28;20041;-74
2022/12/11 14:45:08;;;;;;;43.60;18.67;;;;;;;;;;4939385;28;20065;-76
2022/12/11 14:47:41;;;;;;;42.93;19.80;;;;;;;;;;4952932;28;20093;-73